KMCN/MCN METAR and TAF weather

Enter ICAO airport designator
Station Type Date Time Source
KMCN METAR 2021/09/19 12:53 UTC NOAA

KMCN 191253Z 09003KT 2 1/2SM BR SCT012 BKN034 BKN110 24/23 A3008 RMK AO2 SLP181 T02390233


Station Type Date Time Source
KMCN Decoded METAR 2021/09/19 12:53 UTC NOAA

MIDDLE GEORGIA REGIONAL AIRPORT , GA, United States (KMCN) 32-41N 83-39W 109M
Sep 19, 2021 - 08:53 AM EDT / 2021.09.19 1253 UTC
Wind: from the E (090 degrees) at 3 MPH (3 KT):0
Visibility: 2 1/2 mile(s):0
Sky conditions: mostly cloudy
Weather: mist
Temperature: 75.0 F (23.9 C)
Dew Point: 73.9 F (23.3 C)
Relative Humidity: 96%
Pressure (altimeter): 30.08 in. Hg (1018 hPa)
ob: KMCN 191253Z 09003KT 2 1/2SM BR SCT012 BKN034 BKN110 24/23 A3008 RMK AO2 SLP181 T02390233
cycle: 13

Station Type Date Time Source
KMCN TAF 2021/09/19 12:36 UTC NOAA

TAF KMCN 191135Z 1912/2012 00000KT 3SM BR SCT004 BKN120
TEMPO 1912/1914 BKN004
FM191400 VRB03KT P6SM SCT025 OVC120
FM191600 10007KT P6SM VCSH SCT025 OVC035
FM192000 09006KT P6SM VCSH SCT025 OVC050
TEMPO 1922/2002 4SM TSRA BKN015CB
FM200600 09004KT P6SM OVC006

Example: see airport list